Time;durP1;ratioP1;P1;durP2;ratioP2;P2;SDS_P1;SDS_P2;PMS_P1;PMS_P2;Temp;Humidity;BMP_temperature;BMP_pressure;BME280_temperature;BME280_humidity;BME280_pressure;Samples;Min_cycle;Max_cycle;Signal;HPM_P1;HPM_P2
2023/04/04 00:01:34;;;;;;;0.20;0.20;;;;;;;-0.38;76.40;97467.22;5041251;28;20257;-68
2023/04/04 00:03:59;;;;;;;0.20;0.20;;;;;;;-0.37;76.52;97474.00;5018703;28;20186;-69
2023/04/04 00:06:25;;;;;;;0.20;0.20;;;;;;;-0.43;74.98;97472.78;5013589;28;20178;-69
2023/04/04 00:08:50;;;;;;;0.20;0.20;;;;;;;-0.32;74.53;97464.91;5014180;28;20195;-69
2023/04/04 00:11:15;;;;;;;0.20;0.20;;;;;;;-0.30;74.55;97459.63;5014060;28;20209;-69
2023/04/04 00:13:41;;;;;;;0.30;0.30;;;;;;;-0.36;75.15;97457.59;5015020;28;20257;-69
2023/04/04 00:16:06;;;;;;;0.27;0.27;;;;;;;-0.30;74.60;97451.88;5020301;28;20264;-69
2023/04/04 00:18:32;;;;;;;0.20;0.20;;;;;;;-0.43;73.67;97457.34;5034067;28;20186;-69
2023/04/04 00:20:57;;;;;;;0.20;0.20;;;;;;;-0.46;73.66;97460.22;5033780;28;20179;-69
2023/04/04 00:23:23;;;;;;;0.20;0.20;;;;;;;-0.38;73.41;97459.50;5025397;28;20688;-70
2023/04/04 00:25:52;;;;;;;0.20;0.20;;;;;;;-0.39;73.56;97452.75;5017453;28;20187;-70
2023/04/04 00:28:18;;;;;;;0.23;0.23;;;;;;;-0.51;73.08;97457.25;5033275;28;20182;-70
2023/04/04 00:30:45;;;;;;;0.20;0.20;;;;;;;-0.54;73.03;97460.91;5022828;28;20665;-69
2023/04/04 00:33:11;;;;;;;0.20;0.20;;;;;;;-0.43;72.76;97460.75;5019488;28;20265;-70
2023/04/04 00:35:36;;;;;;;0.20;0.20;;;;;;;-0.44;72.35;97451.38;5013684;28;20262;-69
2023/04/04 00:38:01;;;;;;;0.20;0.20;;;;;;;-0.47;72.71;97453.44;5013751;28;20182;-70
2023/04/04 00:40:27;;;;;;;0.20;0.20;;;;;;;-0.53;71.38;97448.84;5033053;28;20178;-70
2023/04/04 00:42:53;;;;;;;0.20;0.20;;;;;;;-0.53;72.51;97449.66;5025530;28;20202;-70
2023/04/04 00:45:18;;;;;;;0.20;0.20;;;;;;;-0.57;72.04;97442.38;5007227;28;20546;-69
2023/04/04 00:47:45;;;;;;;0.30;0.30;;;;;;;-0.58;72.50;97451.84;5015601;28;20188;-69
2023/04/04 00:50:11;;;;;;;0.20;0.20;;;;;;;-0.61;72.21;97452.13;5030053;28;20301;-70
2023/04/04 00:52:36;;;;;;;0.20;0.20;;;;;;;-0.57;71.62;97439.81;5018528;28;20749;-69
2023/04/04 00:55:03;;;;;;;0.20;0.20;;;;;;;-0.63;71.97;97437.78;5032537;28;20189;-71
2023/04/04 00:57:29;;;;;;;0.20;0.20;;;;;;;-0.63;72.43;97436.03;5006160;28;20202;-70
2023/04/04 00:59:56;;;;;;;0.20;0.20;;;;;;;-0.64;72.66;97439.53;5014541;28;20183;-69
2023/04/04 01:02:23;;;;;;;0.23;0.23;;;;;;;-0.68;72.67;97438.22;5023613;28;20241;-70
2023/04/04 01:04:50;;;;;;;0.20;0.20;;;;;;;-0.71;72.16;97435.09;5034009;28;20244;-69
2023/04/04 01:07:16;;;;;;;0.30;0.30;;;;;;;-0.78;72.08;97434.03;5033219;28;20521;-69
2023/04/04 01:09:41;;;;;;;0.17;0.17;;;;;;;-0.82;72.71;97430.09;5032974;28;20178;-69
2023/04/04 01:12:07;;;;;;;0.10;0.10;;;;;;;-0.79;72.82;97437.56;5032779;28;20202;-69
2023/04/04 01:14:32;;;;;;;0.10;0.10;;;;;;;-0.84;73.04;97430.28;5045336;28;20179;-69
2023/04/04 01:17:01;;;;;;;0.20;0.20;;;;;;;-0.91;72.50;97427.44;5033246;28;20186;-70
2023/04/04 01:19:35;;;;;;;0.10;0.10;;;;;;;-0.87;72.54;97426.19;5033167;28;20576;-70
2023/04/04 01:22:01;;;;;;;0.20;0.20;;;;;;;-0.90;72.76;97429.06;5033131;28;20185;-70
2023/04/04 01:24:32;;;;;;;0.23;0.23;;;;;;;-0.92;73.28;97425.81;4999495;28;20171;-69
2023/04/04 01:26:59;;;;;;;0.17;0.17;;;;;;;-0.94;73.59;97425.13;5033074;28;20203;-69
2023/04/04 01:29:26;;;;;;;0.30;0.30;;;;;;;-0.95;73.91;97423.50;5044740;28;20276;-69
2023/04/04 01:31:59;;;;;;;4.27;2.00;;;;;;;-0.98;73.34;97421.22;5052575;28;20206;-69
2023/04/04 01:34:43;;;;;;;1.00;0.77;;;;;;;-0.98;73.45;97415.25;5032209;28;20250;-68
2023/04/04 01:37:33;;;;;;;0.20;0.20;;;;;;;-0.96;73.04;97414.19;5032951;28;20182;-69
2023/04/04 01:40:09;;;;;;;0.20;0.20;;;;;;;-0.85;73.27;97420.94;5035150;28;20555;-69
2023/04/04 01:42:35;;;;;;;0.20;0.20;;;;;;;-0.91;73.69;97418.91;5033644;28;20182;-69
2023/04/04 01:45:01;;;;;;;0.10;0.10;;;;;;;-0.88;73.72;97423.75;5052279;28;20170;-69
2023/04/04 01:47:28;;;;;;;0.20;0.20;;;;;;;-0.95;73.55;97420.94;5051022;28;20631;-69
2023/04/04 01:49:53;;;;;;;0.20;0.20;;;;;;;-0.99;74.24;97421.34;5036007;28;20178;-69
2023/04/04 01:52:18;;;;;;;0.20;0.20;;;;;;;-1.00;73.93;97419.72;5033378;28;20217;-68
2023/04/04 01:54:44;;;;;;;0.20;0.20;;;;;;;-1.02;73.05;97417.31;5032411;28;20270;-68
2023/04/04 01:57:09;;;;;;;0.20;0.20;;;;;;;-0.97;73.48;97416.88;5022630;28;20194;-68
2023/04/04 01:59:35;;;;;;;0.20;0.20;;;;;;;-1.05;74.14;97415.00;5032599;28;20609;-69
2023/04/04 02:02:00;;;;;;;0.20;0.20;;;;;;;-1.05;75.19;97420.13;5027737;28;20254;-69
2023/04/04 02:04:26;;;;;;;0.20;0.20;;;;;;;-0.95;75.29;97422.72;5014018;28;20211;-69
2023/04/04 02:06:51;;;;;;;0.20;0.20;;;;;;;-0.97;75.36;97416.88;5012848;28;20191;-69
2023/04/04 02:09:17;;;;;;;0.30;0.30;;;;;;;-0.97;75.92;97420.28;5013110;28;20717;-69
2023/04/04 02:11:42;;;;;;;0.20;0.20;;;;;;;-1.03;76.44;97420.81;5013984;28;20290;-69
2023/04/04 02:14:08;;;;;;;0.10;0.10;;;;;;;-1.08;76.42;97423.00;5012820;28;20668;-69
2023/04/04 02:16:33;;;;;;;0.10;0.10;;;;;;;-1.12;76.30;97419.09;5012742;28;20226;-69
2023/04/04 02:18:59;;;;;;;0.20;0.20;;;;;;;-1.19;77.23;97419.78;5020298;28;20523;-69
2023/04/04 02:21:26;;;;;;;0.20;0.20;;;;;;;-1.15;77.57;97413.41;5021136;28;20664;-69
2023/04/04 02:23:51;;;;;;;0.20;0.20;;;;;;;-1.15;77.29;97419.34;5012567;28;20184;-69
2023/04/04 02:26:16;;;;;;;0.20;0.20;;;;;;;-1.15;77.57;97413.41;5013948;28;20194;-69
2023/04/04 02:28:42;;;;;;;0.20;0.20;;;;;;;-1.24;77.60;97414.22;5010498;28;20179;-69
2023/04/04 02:31:07;;;;;;;0.20;0.20;;;;;;;-1.32;78.09;97414.91;5027115;28;20199;-69
2023/04/04 02:33:32;;;;;;;0.20;0.20;;;;;;;-1.37;78.30;97417.88;5016742;28;20670;-69
2023/04/04 02:35:59;;;;;;;0.20;0.20;;;;;;;-1.41;78.83;97416.56;5030444;28;20526;-70
2023/04/04 02:38:25;;;;;;;0.20;0.20;;;;;;;-1.38;78.56;97423.97;5018239;28;20198;-69
2023/04/04 02:40:51;;;;;;;0.30;0.30;;;;;;;-1.27;78.83;97420.44;5015923;28;20527;-69
2023/04/04 02:43:16;;;;;;;0.20;0.20;;;;;;;-1.39;78.28;97409.50;5015931;28;20168;-69
2023/04/04 02:45:41;;;;;;;0.30;0.30;;;;;;;-1.48;79.18;97418.03;5015883;28;20197;-69
2023/04/04 02:48:07;;;;;;;0.23;0.23;;;;;;;-1.40;78.19;97410.47;5029303;28;20187;-69
2023/04/04 02:50:32;;;;;;;0.20;0.20;;;;;;;-1.51;79.60;97420.88;5034887;28;20175;-69
2023/04/04 02:53:04;;;;;;;0.20;0.20;;;;;;;-1.56;79.84;97410.19;5034753;28;20208;-69
2023/04/04 02:55:29;;;;;;;0.30;0.30;;;;;;;-1.60;79.78;97411.41;5033576;28;20182;-70
2023/04/04 02:57:55;;;;;;;0.30;0.30;;;;;;;-1.50;78.92;97411.41;5020744;28;20655;-69
2023/04/04 03:00:20;;;;;;;0.20;0.20;;;;;;;-1.59;79.85;97404.50;5017854;28;20194;-69
2023/04/04 03:02:53;;;;;;;0.20;0.20;;;;;;;-1.47;78.31;97413.72;5033973;28;20629;-69
2023/04/04 03:05:18;;;;;;;0.20;0.20;;;;;;;-1.50;79.01;97407.06;5052124;28;20239;-69
2023/04/04 03:07:43;;;;;;;0.13;0.13;;;;;;;-1.56;79.01;97411.97;5045572;28;20191;-69
2023/04/04 03:10:09;;;;;;;0.20;0.20;;;;;;;-1.52;79.09;97405.59;5054689;28;20634;-69
2023/04/04 03:12:34;;;;;;;0.20;0.20;;;;;;;-1.65;80.11;97410.19;5044222;28;20210;-69
2023/04/04 03:15:00;;;;;;;0.20;0.20;;;;;;;-1.62;80.47;97403.03;5035261;28;20186;-69
2023/04/04 03:17:26;;;;;;;0.20;0.20;;;;;;;-1.72;80.54;97405.59;5042887;28;20295;-69
2023/04/04 03:19:51;;;;;;;0.20;0.20;;;;;;;-1.74;81.15;97394.66;5035040;28;20210;-69
2023/04/04 03:22:17;;;;;;;0.20;0.20;;;;;;;-1.75;80.93;97397.34;5036071;28;20559;-69
2023/04/04 03:24:42;;;;;;;0.20;0.20;;;;;;;-1.69;81.38;97401.94;5035650;28;20253;-70
2023/04/04 03:27:08;;;;;;;0.20;0.20;;;;;;;-1.74;81.32;97397.22;5035871;28;20249;-69
2023/04/04 03:29:33;;;;;;;0.30;0.30;;;;;;;-1.73;81.07;97395.47;5034956;28;20262;-69
2023/04/04 03:31:58;;;;;;;0.20;0.20;;;;;;;-1.82;81.78;97404.78;5035868;28;20674;-69
2023/04/04 03:34:24;;;;;;;0.20;0.20;;;;;;;-1.75;80.42;97394.78;5033781;28;20750;-70
2023/04/04 03:36:52;;;;;;;0.20;0.20;;;;;;;-1.77;81.45;97394.91;5034517;28;20597;-69
2023/04/04 03:39:17;;;;;;;0.20;0.20;;;;;;;-1.81;81.65;97400.44;5034200;28;20179;-69
2023/04/04 03:41:43;;;;;;;0.20;0.20;;;;;;;-1.74;80.97;97397.22;5034701;28;20241;-69
2023/04/04 03:44:08;;;;;;;0.30;0.30;;;;;;;-1.74;81.03;97407.50;5053029;28;20618;-69
2023/04/04 03:46:33;;;;;;;0.20;0.20;;;;;;;-1.74;79.60;97397.22;5053973;28;20170;-70
2023/04/04 03:48:59;;;;;;;0.27;0.27;;;;;;;-1.78;79.74;97405.31;5053205;28;20189;-70
2023/04/04 03:51:26;;;;;;;0.30;0.30;;;;;;;-1.74;79.71;97399.78;5053572;28;20206;-70
2023/04/04 03:53:51;;;;;;;0.30;0.30;;;;;;;-1.75;79.83;97392.22;5037586;28;20643;-70
2023/04/04 03:56:17;;;;;;;0.30;0.30;;;;;;;-1.83;80.49;97397.19;5029930;28;20196;-69
2023/04/04 03:58:42;;;;;;;0.30;0.30;;;;;;;-1.79;79.01;97393.44;5016283;28;20175;-70
2023/04/04 04:01:08;;;;;;;0.20;0.20;;;;;;;-1.73;79.71;97396.25;5034203;28;20178;-69
2023/04/04 04:03:33;;;;;;;0.30;0.30;;;;;;;-1.65;80.06;97393.00;5047187;28;20688;-70
2023/04/04 04:05:59;;;;;;;0.20;0.20;;;;;;;-1.82;80.35;97401.38;5052863;28;20695;-70
2023/04/04 04:08:27;;;;;;;0.30;0.30;;;;;;;-1.91;81.63;97392.75;5034964;28;20181;-69
2023/04/04 04:10:53;;;;;;;0.30;0.30;;;;;;;-1.93;81.10;97401.50;5051905;28;20639;-70
2023/04/04 04:13:18;;;;;;;0.30;0.30;;;;;;;-1.96;81.61;97394.09;5053742;28;20210;-70
2023/04/04 04:15:44;;;;;;;0.20;0.20;;;;;;;-1.89;79.11;97401.09;5053450;28;20182;-69
2023/04/04 04:18:09;;;;;;;0.20;0.20;;;;;;;-1.90;80.90;97396.13;5035730;28;20183;-70
2023/04/04 04:20:35;;;;;;;0.27;0.27;;;;;;;-1.92;79.32;97396.25;5053376;28;20190;-70
2023/04/04 04:23:00;;;;;;;0.23;0.23;;;;;;;-1.89;79.79;97390.03;5016085;28;20540;-69
2023/04/04 04:25:25;;;;;;;0.20;0.20;;;;;;;-1.91;80.11;97395.31;5033909;28;20189;-69
2023/04/04 04:27:55;;;;;;;0.30;0.30;;;;;;;-1.99;80.16;97396.91;5033594;28;20212;-69
2023/04/04 04:30:20;;;;;;;0.20;0.20;;;;;;;-1.93;79.13;97391.25;5051688;28;20178;-69
2023/04/04 04:32:48;;;;;;;0.30;0.30;;;;;;;-1.95;79.54;97391.38;5036461;28;20209;-70
2023/04/04 04:35:13;;;;;;;0.20;0.20;;;;;;;-1.91;80.19;97402.22;5032983;28;20591;-70
2023/04/04 04:37:38;;;;;;;0.20;0.20;;;;;;;-1.96;80.85;97401.78;5033608;28;20261;-70
2023/04/04 04:40:05;;;;;;;0.30;0.30;;;;;;;-1.92;80.75;97396.25;5048771;28;20190;-70
2023/04/04 04:42:30;;;;;;;0.30;0.30;;;;;;;-1.99;80.46;97396.91;5038557;28;20309;-70
2023/04/04 04:44:56;;;;;;;0.20;0.20;;;;;;;-2.02;80.53;97400.56;5033085;28;20179;-70
2023/04/04 04:47:21;;;;;;;0.20;0.20;;;;;;;-2.10;81.30;97408.94;5020147;28;20189;-70
2023/04/04 04:49:48;;;;;;;0.27;0.27;;;;;;;-2.11;80.54;97404.72;5039559;28;20198;-69
2023/04/04 04:52:13;;;;;;;0.20;0.20;;;;;;;-2.06;79.47;97399.19;5033114;28;20210;-69
2023/04/04 04:54:39;;;;;;;0.30;0.30;;;;;;;-2.10;81.07;97397.84;5028793;28;20245;-70
2023/04/04 04:57:05;;;;;;;0.30;0.30;;;;;;;-2.05;80.83;97397.44;5033870;28;20278;-70
2023/04/04 04:59:30;;;;;;;0.20;0.20;;;;;;;-2.02;80.90;97407.47;5033850;28;20258;-70
2023/04/04 05:01:56;;;;;;;0.20;0.20;;;;;;;-2.03;80.44;97404.06;5032886;28;20309;-69
2023/04/04 05:04:21;;;;;;;0.20;0.20;;;;;;;-1.96;79.70;97404.38;5042859;28;20200;-69
2023/04/04 05:06:47;;;;;;;0.20;0.20;;;;;;;-2.02;79.21;97410.84;5021949;28;20606;-69
2023/04/04 05:09:13;;;;;;;0.30;0.30;;;;;;;-1.98;79.08;97407.06;5032959;28;20190;-69
2023/04/04 05:11:38;;;;;;;0.20;0.20;;;;;;;-1.88;79.49;97419.91;5032817;28;20669;-69
2023/04/04 05:14:04;;;;;;;0.20;0.20;;;;;;;-1.69;78.06;97413.03;5033006;28;20193;-69
2023/04/04 05:16:30;;;;;;;0.30;0.30;;;;;;;-1.64;78.57;97415.19;5043525;28;20194;-70
2023/04/04 05:18:56;;;;;;;0.20;0.20;;;;;;;-1.61;77.73;97412.34;5052282;28;20186;-69
2023/04/04 05:21:22;;;;;;;0.30;0.27;;;;;;;-1.73;77.78;97421.94;5051873;28;20201;-70
2023/04/04 05:23:47;;;;;;;0.20;0.20;;;;;;;-1.52;76.84;97414.13;5047376;28;20179;-70
2023/04/04 05:26:13;;;;;;;0.20;0.20;;;;;;;-1.29;76.24;97414.66;5051401;28;20186;-68
2023/04/04 05:28:39;;;;;;;0.30;0.30;;;;;;;-1.10;75.38;97421.50;5029865;28;20182;-70
2023/04/04 05:31:05;;;;;;;0.20;0.20;;;;;;;-1.08;75.18;97415.28;5036227;28;20657;-70
2023/04/04 05:33:30;;;;;;;0.30;0.30;;;;;;;-1.04;74.43;97413.25;5034039;28;20186;-70
2023/04/04 05:35:56;;;;;;;0.27;0.27;;;;;;;-1.14;75.33;97417.59;5036244;28;20182;-70
2023/04/04 05:38:21;;;;;;;0.20;0.20;;;;;;;-1.06;75.06;97425.44;5032727;28;20178;-70
2023/04/04 05:40:46;;;;;;;0.20;0.20;;;;;;;-0.92;74.53;97417.28;5036733;28;20185;-70
2023/04/04 05:43:12;;;;;;;0.20;0.20;;;;;;;-0.72;73.27;97418.84;5033150;28;20240;-70
2023/04/04 05:45:37;;;;;;;0.20;0.20;;;;;;;-0.72;72.93;97425.75;5033527;28;20720;-70
2023/04/04 05:48:03;;;;;;;0.20;0.20;;;;;;;-0.89;73.53;97428.09;5032468;28;20190;-70
2023/04/04 05:50:29;;;;;;;0.20;0.20;;;;;;;-0.48;72.65;97420.91;5032399;28;20179;-71
2023/04/04 05:52:55;;;;;;;0.30;0.30;;;;;;;-0.61;72.13;97436.69;5032614;28;20271;-72
2023/04/04 05:55:21;;;;;;;0.20;0.20;;;;;;;-0.29;70.90;97427.75;5022729;28;20612;-70
2023/04/04 05:57:50;;;;;;;0.20;0.20;;;;;;;-0.35;71.28;97428.31;5032574;28;20575;-70
2023/04/04 06:00:17;;;;;;;0.20;0.20;;;;;;;-0.31;70.37;97430.47;5050433;28;20300;-70
2023/04/04 06:02:43;;;;;;;0.10;0.10;;;;;;;-0.22;70.87;97434.75;5042125;28;20218;-70
2023/04/04 06:05:09;;;;;;;0.20;0.20;;;;;;;-0.05;69.92;97428.03;5027648;28;20278;-71
2023/04/04 06:07:34;;;;;;;0.13;0.13;;;;;;;-0.05;69.13;97423.69;5016449;28;20662;-71
2023/04/04 06:10:01;;;;;;;0.20;0.20;;;;;;;-0.13;69.09;97430.53;5032555;28;20293;-72
2023/04/04 06:12:26;;;;;;;0.20;0.20;;;;;;;-0.08;69.15;97425.75;5016657;28;20285;-71
2023/04/04 06:14:52;;;;;;;0.20;0.20;;;;;;;0.00;68.60;97428.41;5008290;28;20236;-71
2023/04/04 06:17:17;;;;;;;0.20;0.20;;;;;;;0.04;68.16;97432.31;5035407;28;20259;-71
2023/04/04 06:19:43;;;;;;;0.20;0.20;;;;;;;0.20;67.72;97429.91;5019432;28;20184;-71
2023/04/04 06:22:08;;;;;;;0.10;0.10;;;;;;;-0.18;67.89;97422.41;5000423;28;20202;-71
2023/04/04 06:24:33;;;;;;;0.27;0.27;;;;;;;0.12;68.06;97432.41;5022740;28;20273;-70
2023/04/04 06:26:59;;;;;;;0.20;0.20;;;;;;;0.40;66.46;97425.41;5035382;28;20183;-71
2023/04/04 06:29:25;;;;;;;0.20;0.20;;;;;;;0.33;66.79;97430.38;5034113;28;20205;-71
2023/04/04 06:31:50;;;;;;;0.20;0.20;;;;;;;0.22;66.49;97424.63;5027409;28;20210;-71
2023/04/04 06:34:15;;;;;;;0.20;0.20;;;;;;;0.25;66.95;97421.75;5016341;28;20648;-71
2023/04/04 06:36:41;;;;;;;0.20;0.20;;;;;;;0.49;66.05;97424.56;5015679;28;20238;-71
2023/04/04 06:39:06;;;;;;;0.20;0.20;;;;;;;0.38;66.04;97417.03;5016104;28;20270;-71
2023/04/04 06:41:32;;;;;;;0.20;0.20;;;;;;;0.42;65.34;97420.94;5016129;28;20183;-71
2023/04/04 06:43:57;;;;;;;0.20;0.20;;;;;;;0.46;65.25;97416.28;5029764;28;20217;-71
2023/04/04 06:46:24;;;;;;;0.10;0.10;;;;;;;0.44;65.71;97421.59;5018511;28;20186;-71
2023/04/04 06:48:49;;;;;;;0.20;0.20;;;;;;;0.50;64.78;97426.19;5035489;28;20197;-71
2023/04/04 06:51:14;;;;;;;0.20;0.20;;;;;;;0.65;64.37;97422.09;5035027;28;20198;-72
2023/04/04 06:53:40;;;;;;;0.20;0.20;;;;;;;0.68;64.83;97426.97;5023464;28;20211;-71
2023/04/04 06:56:06;;;;;;;0.13;0.13;;;;;;;0.68;62.70;97413.25;5034049;28;20190;-70
2023/04/04 06:58:31;;;;;;;0.20;0.20;;;;;;;0.70;62.89;97419.06;5017812;28;20213;-71
2023/04/04 07:00:58;;;;;;;0.20;0.20;;;;;;;0.37;63.09;97423.97;4997822;28;20186;-71
2023/04/04 07:03:24;;;;;;;0.20;0.20;;;;;;;0.69;63.51;97420.84;5033524;28;20268;-71
2023/04/04 07:05:50;;;;;;;0.20;0.20;;;;;;;0.58;62.51;97413.34;5034390;28;20217;-71
2023/04/04 07:08:15;;;;;;;0.10;0.10;;;;;;;1.22;78.03;97409.63;5034389;28;20201;-72
2023/04/04 07:10:40;;;;;;;0.10;0.10;;;;;;;2.19;66.64;97414.34;5028373;28;20217;-71
2023/04/04 07:13:06;;;;;;;0.20;0.20;;;;;;;1.30;62.35;97409.63;5032642;28;20215;-70
2023/04/04 07:15:31;;;;;;;0.20;0.20;;;;;;;1.35;62.74;97415.16;5034779;28;20186;-70
2023/04/04 07:17:57;;;;;;;0.20;0.20;;;;;;;1.73;61.54;97418.25;5034628;28;20531;-70
2023/04/04 07:20:22;;;;;;;0.10;0.10;;;;;;;1.26;61.54;97426.41;5033068;28;20187;-70
2023/04/04 07:22:48;;;;;;;0.10;0.10;;;;;;;1.52;61.94;97423.78;5022029;28;20188;-70
2023/04/04 07:25:13;;;;;;;0.10;0.10;;;;;;;1.41;60.12;97429.22;5032728;28;20225;-70
2023/04/04 07:27:39;;;;;;;0.20;0.20;;;;;;;1.28;60.80;97424.50;5030789;28;20198;-70
2023/04/04 07:30:06;;;;;;;0.20;0.20;;;;;;;1.14;60.59;97420.69;5027998;28;20184;-70
2023/04/04 07:32:31;;;;;;;0.20;0.20;;;;;;;1.43;60.02;97427.31;5031615;28;20203;-69
2023/04/04 07:34:56;;;;;;;0.10;0.10;;;;;;;1.47;60.41;97424.25;5033866;28;20601;-70
2023/04/04 07:37:22;;;;;;;0.10;0.10;;;;;;;1.85;60.34;97425.56;5033752;28;20179;-70
2023/04/04 07:39:48;;;;;;;0.20;0.20;;;;;;;1.58;59.48;97416.25;5034331;28;20190;-70
2023/04/04 07:42:15;;;;;;;0.20;0.20;;;;;;;1.58;58.43;97410.25;5030784;28;20190;-70
2023/04/04 07:44:41;;;;;;;0.10;0.10;;;;;;;1.41;59.31;97424.88;5034232;28;20187;-69
2023/04/04 07:47:07;;;;;;;0.10;0.10;;;;;;;1.58;58.06;97418.81;5033501;28;20187;-70
2023/04/04 07:49:32;;;;;;;0.20;0.20;;;;;;;2.09;58.19;97415.31;5033605;28;20182;-70
2023/04/04 07:51:57;;;;;;;0.10;0.10;;;;;;;2.13;57.07;97423.53;5034436;28;20345;-70
2023/04/04 07:54:23;;;;;;;0.13;0.13;;;;;;;2.28;57.36;97421.16;5033043;28;20187;-70
2023/04/04 07:56:49;;;;;;;0.10;0.10;;;;;;;2.12;57.70;97423.72;5028551;28;20546;-70
2023/04/04 07:59:14;;;;;;;0.10;0.10;;;;;;;2.08;57.86;97418.84;5014355;28;20621;-70
2023/04/04 08:01:40;;;;;;;0.10;0.10;;;;;;;1.69;57.95;97417.75;5019331;28;20226;-70
2023/04/04 08:04:05;;;;;;;0.10;0.10;;;;;;;1.64;57.95;97425.16;5036079;28;20211;-70
2023/04/04 08:06:32;;;;;;;0.20;0.20;;;;;;;1.79;58.83;97420.19;5053924;28;20166;-70
2023/04/04 08:08:57;;;;;;;0.10;0.10;;;;;;;2.09;58.04;97409.31;5036055;28;20220;-70
2023/04/04 08:11:23;;;;;;;0.20;0.20;;;;;;;2.22;56.99;97420.03;5053713;28;20212;-70
2023/04/04 08:13:49;;;;;;;0.20;0.20;;;;;;;1.93;57.63;97427.38;5053613;28;20186;-70
2023/04/04 08:16:14;;;;;;;0.10;0.10;;;;;;;2.17;57.80;97418.88;5053729;28;20186;-70
2023/04/04 08:18:39;;;;;;;0.20;0.20;;;;;;;2.30;57.46;97424.38;5046249;28;20178;-70
2023/04/04 08:21:05;;;;;;;0.10;0.10;;;;;;;2.05;57.55;97423.53;5033862;28;20281;-70
2023/04/04 08:23:30;;;;;;;0.10;0.10;;;;;;;2.32;57.25;97419.88;5033169;28;20670;-70
2023/04/04 08:25:58;;;;;;;0.10;0.10;;;;;;;2.60;56.98;97422.97;5033484;28;20517;-70
2023/04/04 08:28:25;;;;;;;0.20;0.20;;;;;;;2.62;55.19;97424.41;5037022;28;20198;-70
2023/04/04 08:30:54;;;;;;;0.10;0.10;;;;;;;2.40;55.94;97427.63;5044292;28;20179;-70
2023/04/04 08:33:22;;;;;;;0.10;0.10;;;;;;;2.85;54.50;97424.59;5044837;28;20618;-70
2023/04/04 08:35:47;;;;;;;0.20;0.20;;;;;;;2.70;54.92;97421.84;5051204;28;20190;-70
2023/04/04 08:38:12;;;;;;;0.10;0.10;;;;;;;2.59;54.64;97423.94;5052531;28;20509;-70
2023/04/04 08:40:38;;;;;;;0.10;0.10;;;;;;;2.92;54.01;97421.19;5046213;28;20265;-70
2023/04/04 08:43:04;;;;;;;0.10;0.10;;;;;;;3.19;53.74;97419.22;5033644;28;20554;-70
2023/04/04 08:45:32;;;;;;;0.20;0.20;;;;;;;2.75;54.78;97422.16;5033381;28;20543;-70
2023/04/04 08:47:59;;;;;;;0.20;0.20;;;;;;;2.56;55.15;97421.69;5035404;28;20638;-70
2023/04/04 08:50:27;;;;;;;0.10;0.10;;;;;;;2.52;54.07;97426.34;5036975;28;20720;-69
2023/04/04 08:52:54;;;;;;;0.10;0.10;;;;;;;2.56;53.99;97422.50;5032812;28;20203;-70
2023/04/04 08:55:19;;;;;;;0.10;0.10;;;;;;;2.37;54.05;97413.25;5015697;28;20182;-70
2023/04/04 08:57:45;;;;;;;0.10;0.10;;;;;;;2.64;54.92;97411.31;5047400;28;20197;-70
2023/04/04 09:00:12;;;;;;;0.10;0.10;;;;;;;2.66;55.11;97417.16;5045420;28;20185;-70
2023/04/04 09:02:45;;;;;;;0.20;0.20;;;;;;;2.82;54.37;97428.31;5015018;28;20266;-69
2023/04/04 09:05:12;;;;;;;0.10;0.10;;;;;;;3.27;52.59;97429.56;5030040;28;20213;-70
2023/04/04 09:07:38;;;;;;;0.07;0.07;;;;;;;3.19;53.05;97419.22;5033041;28;20181;-70
2023/04/04 09:10:04;;;;;;;0.13;0.13;;;;;;;3.13;53.00;97420.69;5047326;28;20549;-69
2023/04/04 09:12:35;;;;;;;0.10;0.10;;;;;;;3.16;52.52;97416.97;5047988;28;20260;-70
2023/04/04 09:15:02;;;;;;;0.20;0.20;;;;;;;3.07;52.80;97416.16;5015036;28;20182;-69
2023/04/04 09:17:27;;;;;;;0.10;0.10;;;;;;;3.47;52.09;97414.47;5033664;28;20197;-69
2023/04/04 09:19:53;;;;;;;0.10;0.10;;;;;;;3.62;51.58;97416.19;5032420;28;20187;-70
2023/04/04 09:22:18;;;;;;;0.10;0.10;;;;;;;2.74;52.20;97430.09;5033355;28;20189;-70
2023/04/04 09:24:44;;;;;;;0.10;0.10;;;;;;;2.82;52.70;97430.91;5037148;28;20219;-70
2023/04/04 09:27:11;;;;;;;0.20;0.20;;;;;;;3.19;51.85;97432.97;5033683;28;20227;-69
2023/04/04 09:29:37;;;;;;;0.10;0.10;;;;;;;3.07;52.01;97417.94;5033020;28;20537;-70
2023/04/04 09:32:03;;;;;;;0.10;0.10;;;;;;;3.38;51.52;97420.66;5033312;28;20199;-70
2023/04/04 09:34:29;;;;;;;0.10;0.10;;;;;;;3.50;51.95;97424.50;5051031;28;20186;-70
2023/04/04 09:36:56;;;;;;;0.10;0.10;;;;;;;3.62;51.39;97420.59;5053940;28;20235;-70
2023/04/04 09:39:22;;;;;;;0.10;0.10;;;;;;;3.85;51.62;97420.63;5056002;28;20193;-70
2023/04/04 09:41:48;;;;;;;0.10;0.10;;;;;;;3.99;50.87;97419.94;5032567;28;20190;-70
2023/04/04 09:44:15;;;;;;;0.20;0.20;;;;;;;3.56;50.45;97423.84;5040903;28;20616;-70
2023/04/04 09:46:41;;;;;;;0.10;0.10;;;;;;;3.85;50.61;97423.22;5054349;28;20266;-71
2023/04/04 09:49:10;;;;;;;0.00;0.00;;;;;;;4.03;49.27;97419.44;5038458;28;20225;-71
2023/04/04 09:51:37;;;;;;;0.10;0.10;;;;;;;3.99;49.09;97418.16;5035287;28;20209;-70
2023/04/04 09:54:05;;;;;;;0.10;0.10;;;;;;;3.50;49.44;97427.09;5035186;28;20248;-69
2023/04/04 09:56:33;;;;;;;0.10;0.10;;;;;;;3.25;50.65;97431.50;5035357;28;20183;-69
2023/04/04 09:59:01;;;;;;;0.10;0.10;;;;;;;3.28;50.42;97437.19;5042067;28;20653;-69
2023/04/04 10:01:27;;;;;;;0.10;0.10;;;;;;;3.69;51.58;97421.50;5043084;28;20238;-70
2023/04/04 10:03:53;;;;;;;0.10;0.10;;;;;;;3.31;51.75;97434.25;5043505;28;20189;-70
2023/04/04 10:06:20;;;;;;;0.10;0.10;;;;;;;3.11;52.11;97438.19;5045341;28;20229;-69
2023/04/04 10:08:45;;;;;;;0.10;0.10;;;;;;;2.97;52.47;97433.66;5040105;28;20340;-69
2023/04/04 10:11:11;;;;;;;0.10;0.10;;;;;;;3.01;53.08;97423.78;5038281;28;20210;-70
2023/04/04 10:13:42;;;;;;;0.17;0.17;;;;;;;2.92;53.56;97425.56;5036047;28;20174;-69
2023/04/04 10:16:09;;;;;;;0.10;0.10;;;;;;;3.15;52.18;97420.53;5036273;28;20217;-70
2023/04/04 10:18:35;;;;;;;0.20;0.20;;;;;;;3.29;51.85;97422.44;5037193;28;20632;-69
2023/04/04 10:21:03;;;;;;;0.10;0.10;;;;;;;3.45;52.69;97421.59;5042378;28;20706;-70
2023/04/04 10:23:29;;;;;;;0.10;0.10;;;;;;;3.26;51.19;97410.63;5035834;28;20183;-70
2023/04/04 10:25:56;;;;;;;0.13;0.13;;;;;;;3.30;51.53;97414.50;5042275;28;20197;-69
2023/04/04 10:28:22;;;;;;;0.10;0.10;;;;;;;3.78;51.81;97404.97;5026274;28;20270;-70
2023/04/04 10:31:05;;;;;;;0.10;0.10;;;;;;;3.60;51.30;97410.38;5052257;28;20714;-70
2023/04/04 10:34:08;;;;;;;0.20;0.20;;;;;;;3.45;50.51;97414.66;5040084;28;20215;-70
2023/04/04 10:36:43;;;;;;;0.10;0.10;;;;;;;3.59;50.71;97402.75;5042294;28;20181;-70
2023/04/04 10:39:14;;;;;;;0.10;0.10;;;;;;;3.56;51.25;97419.47;5018249;28;20239;-69
2023/04/04 10:41:41;;;;;;;0.10;0.10;;;;;;;3.67;50.16;97395.78;5032409;28;20238;-70
2023/04/04 10:44:35;;;;;;;0.10;0.10;;;;;;;3.70;50.69;97402.41;5051854;28;20295;-70
2023/04/04 10:47:16;;;;;;;0.10;0.10;;;;;;;3.57;49.11;97410.69;5050126;28;20198;-70
2023/04/04 10:49:44;;;;;;;0.10;0.10;;;;;;;3.52;50.03;97396.63;5032596;28;20192;-70
2023/04/04 10:52:12;;;;;;;0.10;0.10;;;;;;;3.78;50.34;97392.00;5050816;28;20524;-70
2023/04/04 10:54:40;;;;;;;0.10;0.10;;;;;;;4.03;50.17;97385.72;5054804;28;20975;-69
2023/04/04 10:57:06;;;;;;;0.00;0.00;;;;;;;3.86;49.77;97404.13;5046574;28;20282;-69
2023/04/04 10:59:31;;;;;;;0.10;0.10;;;;;;;3.85;48.95;97392.13;5035231;28;20379;-69
2023/04/04 11:01:58;;;;;;;0.10;0.10;;;;;;;3.70;49.41;97399.81;5040342;28;20242;-69
2023/04/04 11:04:37;;;;;;;0.10;0.10;;;;;;;3.68;48.49;97387.00;5021320;28;20192;-69
2023/04/04 11:07:05;;;;;;;0.10;0.10;;;;;;;4.11;49.39;97379.69;5015210;28;20278;-69
2023/04/04 11:09:50;;;;;;;0.10;0.10;;;;;;;3.78;48.14;97389.41;5016447;28;20241;-69
2023/04/04 11:12:22;;;;;;;0.10;0.10;;;;;;;3.94;48.44;97384.16;5032928;28;20673;-69
2023/04/04 11:14:55;;;;;;;0.10;0.10;;;;;;;3.87;47.21;97387.59;5034966;28;20215;-69
2023/04/04 11:17:48;;;;;;;0.10;0.10;;;;;;;4.09;47.79;97377.25;5034292;28;20189;-70
2023/04/04 11:20:15;;;;;;;0.10;0.10;;;;;;;4.27;47.33;97382.19;5023898;28;20195;-69
2023/04/04 11:22:41;;;;;;;0.10;0.10;;;;;;;4.11;47.37;97377.09;5021681;28;20544;-69
2023/04/04 11:25:30;;;;;;;0.03;0.03;;;;;;;4.25;46.76;97384.13;5015470;28;20206;-69
2023/04/04 11:27:57;;;;;;;0.10;0.10;;;;;;;4.18;47.06;97393.56;5026764;28;20186;-69
2023/04/04 11:30:23;;;;;;;0.10;0.10;;;;;;;4.10;47.26;97380.66;5026270;28;20183;-69
2023/04/04 11:32:49;;;;;;;0.10;0.10;;;;;;;4.16;47.24;97392.94;5025370;28;20207;-69
2023/04/04 11:35:17;;;;;;;0.20;0.20;;;;;;;4.16;47.82;97382.56;5026255;28;20187;-69